sensor_id;sensor_type;location;lat;lon;timestamp;pressure;altitude;pressure_sealevel;temperature;humidity
80726;BME280;70113;59.928;10.878;2023-09-19T00:01:33;97294.25;;;14.30;100.00
80726;BME280;70113;59.928;10.878;2023-09-19T00:03:59;97284.34;;;14.32;100.00
80726;BME280;70113;59.928;10.878;2023-09-19T00:06:28;97294.97;;;14.32;100.00
80726;BME280;70113;59.928;10.878;2023-09-19T00:08:57;97280.84;;;14.31;100.00
80726;BME280;70113;59.928;10.878;2023-09-19T00:11:25;97278.28;;;14.30;100.00
80726;BME280;70113;59.928;10.878;2023-09-19T00:13:52;97272.75;;;14.33;100.00
80726;BME280;70113;59.928;10.878;2023-09-19T00:16:18;97273.97;;;14.40;100.00
80726;BME280;70113;59.928;10.878;2023-09-19T00:18:45;97268.03;;;14.36;100.00
80726;BME280;70113;59.928;10.878;2023-09-19T00:21:10;97265.75;;;14.32;100.00
80726;BME280;70113;59.928;10.878;2023-09-19T00:23:37;97264.53;;;14.47;100.00
80726;BME280;70113;59.928;10.878;2023-09-19T00:26:02;97258.13;;;14.50;100.00
80726;BME280;70113;59.928;10.878;2023-09-19T00:28:29;97252.59;;;14.53;100.00
80726;BME280;70113;59.928;10.878;2023-09-19T00:30:55;97247.28;;;14.53;100.00
80726;BME280;70113;59.928;10.878;2023-09-19T00:33:21;97249.56;;;14.46;100.00
80726;BME280;70113;59.928;10.878;2023-09-19T00:35:52;97253.41;;;14.42;100.00
80726;BME280;70113;59.928;10.878;2023-09-19T00:38:19;97241.81;;;14.32;100.00
80726;BME280;70113;59.928;10.878;2023-09-19T00:40:50;97240.75;;;14.34;100.00
80726;BME280;70113;59.928;10.878;2023-09-19T00:43:16;97236.00;;;14.27;100.00
80726;BME280;70113;59.928;10.878;2023-09-19T00:45:44;97238.91;;;14.24;100.00
80726;BME280;70113;59.928;10.878;2023-09-19T00:48:11;97244.47;;;14.32;100.00
80726;BME280;70113;59.928;10.878;2023-09-19T01:10:59;97174.06;;;14.15;100.00
80726;BME280;70113;59.928;10.878;2023-09-19T01:13:34;97175.13;;;14.24;100.00
80726;BME280;70113;59.928;10.878;2023-09-19T01:18:52;97190.94;;;14.36;100.00
80726;BME280;70113;59.928;10.878;2023-09-19T01:21:36;97191.81;;;14.37;100.00
80726;BME280;70113;59.928;10.878;2023-09-19T01:29:38;97176.13;;;14.34;100.00
80726;BME280;70113;59.928;10.878;2023-09-19T01:32:05;97142.31;;;14.25;100.00
80726;BME280;70113;59.928;10.878;2023-09-19T01:34:49;97148.56;;;14.35;100.00
80726;BME280;70113;59.928;10.878;2023-09-19T01:37:19;97146.50;;;14.39;100.00
80726;BME280;70113;59.928;10.878;2023-09-19T01:39:52;97146.50;;;14.39;100.00
80726;BME280;70113;59.928;10.878;2023-09-19T01:42:31;97135.84;;;14.39;100.00
80726;BME280;70113;59.928;10.878;2023-09-19T01:45:10;97128.72;;;14.39;100.00
80726;BME280;70113;59.928;10.878;2023-09-19T01:47:42;97103.63;;;14.21;100.00
80726;BME280;70113;59.928;10.878;2023-09-19T01:52:53;97131.63;;;14.36;100.00
80726;BME280;70113;59.928;10.878;2023-09-19T01:55:20;97128.97;;;14.36;100.00
80726;BME280;70113;59.928;10.878;2023-09-19T01:58:30;97115.19;;;14.42;100.00
80726;BME280;70113;59.928;10.878;2023-09-19T02:01:00;97108.94;;;14.32;100.00
80726;BME280;70113;59.928;10.878;2023-09-19T02:03:26;97099.53;;;14.28;100.00
80726;BME280;70113;59.928;10.878;2023-09-19T02:05:54;97103.63;;;14.32;100.00
80726;BME280;70113;59.928;10.878;2023-09-19T02:08:22;97084.06;;;14.22;100.00
80726;BME280;70113;59.928;10.878;2023-09-19T02:10:52;97093.72;;;14.34;100.00
80726;BME280;70113;59.928;10.878;2023-09-19T02:13:19;97095.16;;;14.38;100.00
80726;BME280;70113;59.928;10.878;2023-09-19T02:15:45;97078.53;;;14.25;100.00
80726;BME280;70113;59.928;10.878;2023-09-19T02:18:12;97072.72;;;14.31;100.00
80726;BME280;70113;59.928;10.878;2023-09-19T02:20:39;97075.72;;;14.38;100.00
80726;BME280;70113;59.928;10.878;2023-09-19T02:23:05;97072.31;;;14.35;100.00
80726;BME280;70113;59.928;10.878;2023-09-19T02:25:31;97064.25;;;14.37;100.00
80726;BME280;70113;59.928;10.878;2023-09-19T02:28:01;97051.19;;;14.34;100.00
80726;BME280;70113;59.928;10.878;2023-09-19T02:30:29;97049.00;;;14.39;100.00
80726;BME280;70113;59.928;10.878;2023-09-19T02:32:55;97032.34;;;14.37;100.00
80726;BME280;70113;59.928;10.878;2023-09-19T02:35:21;97036.16;;;14.44;100.00
80726;BME280;70113;59.928;10.878;2023-09-19T02:37:47;97039.91;;;14.53;100.00
80726;BME280;70113;59.928;10.878;2023-09-19T02:40:14;97033.84;;;14.51;100.00
80726;BME280;70113;59.928;10.878;2023-09-19T02:42:47;97028.66;;;14.49;100.00
80726;BME280;70113;59.928;10.878;2023-09-19T02:45:16;97015.38;;;14.49;100.00
80726;BME280;70113;59.928;10.878;2023-09-19T02:47:43;97004.53;;;14.41;100.00
80726;BME280;70113;59.928;10.878;2023-09-19T02:50:10;96993.78;;;14.43;100.00
80726;BME280;70113;59.928;10.878;2023-09-19T02:52:37;96986.41;;;14.46;100.00
80726;BME280;70113;59.928;10.878;2023-09-19T02:55:03;96968.31;;;14.40;100.00
80726;BME280;70113;59.928;10.878;2023-09-19T02:57:31;96967.91;;;14.45;100.00
80726;BME280;70113;59.928;10.878;2023-09-19T02:59:59;96948.47;;;14.44;100.00
80726;BME280;70113;59.928;10.878;2023-09-19T03:02:26;96949.66;;;14.51;100.00
80726;BME280;70113;59.928;10.878;2023-09-19T03:04:53;96932.75;;;14.52;100.00
80726;BME280;70113;59.928;10.878;2023-09-19T03:07:19;96921.28;;;14.41;100.00
80726;BME280;70113;59.928;10.878;2023-09-19T03:09:45;96909.56;;;14.43;100.00
80726;BME280;70113;59.928;10.878;2023-09-19T03:14:36;96890.03;;;14.33;100.00
80726;BME280;70113;59.928;10.878;2023-09-19T03:17:01;96883.78;;;14.34;100.00
80726;BME280;70113;59.928;10.878;2023-09-19T03:19:30;96877.69;;;14.43;100.00
80726;BME280;70113;59.928;10.878;2023-09-19T03:21:59;96888.25;;;14.54;100.00
80726;BME280;70113;59.928;10.878;2023-09-19T03:24:24;96888.03;;;14.46;100.00
80726;BME280;70113;59.928;10.878;2023-09-19T03:26:50;96867.47;;;14.27;100.00
80726;BME280;70113;59.928;10.878;2023-09-19T03:29:16;96874.56;;;14.38;100.00
80726;BME280;70113;59.928;10.878;2023-09-19T03:31:42;96851.78;;;14.45;100.00
80726;BME280;70113;59.928;10.878;2023-09-19T03:34:08;96854.03;;;14.40;100.00
80726;BME280;70113;59.928;10.878;2023-09-19T03:36:35;96834.31;;;14.43;100.00
80726;BME280;70113;59.928;10.878;2023-09-19T03:39:02;96834.63;;;14.49;100.00
80726;BME280;70113;59.928;10.878;2023-09-19T03:41:31;96814.69;;;14.34;100.00
80726;BME280;70113;59.928;10.878;2023-09-19T03:43:57;96818.88;;;14.36;100.00
80726;BME280;70113;59.928;10.878;2023-09-19T03:46:22;96814.41;;;14.37;100.00
80726;BME280;70113;59.928;10.878;2023-09-19T03:48:48;96799.06;;;14.20;100.00
80726;BME280;70113;59.928;10.878;2023-09-19T03:51:14;96806.44;;;14.37;100.00
80726;BME280;70113;59.928;10.878;2023-09-19T03:53:39;96802.00;;;14.47;100.00
80726;BME280;70113;59.928;10.878;2023-09-19T03:56:05;96792.09;;;14.49;100.00
80726;BME280;70113;59.928;10.878;2023-09-19T03:58:30;96784.38;;;14.46;100.00
80726;BME280;70113;59.928;10.878;2023-09-19T04:00:57;96764.34;;;14.42;100.00
80726;BME280;70113;59.928;10.878;2023-09-19T04:03:24;96756.22;;;14.34;100.00
80726;BME280;70113;59.928;10.878;2023-09-19T04:05:51;96752.31;;;14.38;100.00
80726;BME280;70113;59.928;10.878;2023-09-19T04:08:16;96727.94;;;14.33;100.00
80726;BME280;70113;59.928;10.878;2023-09-19T04:10:45;96735.72;;;14.46;100.00
80726;BME280;70113;59.928;10.878;2023-09-19T04:13:11;96723.53;;;14.43;100.00
80726;BME280;70113;59.928;10.878;2023-09-19T04:15:36;96730.25;;;14.47;100.00
80726;BME280;70113;59.928;10.878;2023-09-19T04:18:03;96726.72;;;14.37;100.00
80726;BME280;70113;59.928;10.878;2023-09-19T04:20:29;96738.47;;;14.44;100.00
80726;BME280;70113;59.928;10.878;2023-09-19T04:22:54;96699.59;;;14.43;100.00
80726;BME280;70113;59.928;10.878;2023-09-19T04:25:20;96708.00;;;14.48;100.00
80726;BME280;70113;59.928;10.878;2023-09-19T04:27:46;96709.19;;;14.55;100.00
80726;BME280;70113;59.928;10.878;2023-09-19T04:30:14;96704.84;;;14.33;100.00
80726;BME280;70113;59.928;10.878;2023-09-19T04:32:40;96691.47;;;14.45;100.00
80726;BME280;70113;59.928;10.878;2023-09-19T04:35:08;96678.91;;;14.47;100.00
80726;BME280;70113;59.928;10.878;2023-09-19T04:37:40;96679.22;;;14.53;100.00
80726;BME280;70113;59.928;10.878;2023-09-19T04:40:08;96667.88;;;14.51;100.00
80726;BME280;70113;59.928;10.878;2023-09-19T04:42:43;96664.63;;;14.48;100.00
80726;BME280;70113;59.928;10.878;2023-09-19T04:45:10;96659.72;;;14.43;100.00
80726;BME280;70113;59.928;10.878;2023-09-19T04:47:36;96643.06;;;14.41;100.00
80726;BME280;70113;59.928;10.878;2023-09-19T04:50:06;96643.84;;;14.53;100.00
80726;BME280;70113;59.928;10.878;2023-09-19T04:52:32;96643.34;;;14.48;100.00
80726;BME280;70113;59.928;10.878;2023-09-19T04:54:57;96647.72;;;14.49;100.00
80726;BME280;70113;59.928;10.878;2023-09-19T04:57:23;96627.59;;;14.56;100.00
80726;BME280;70113;59.928;10.878;2023-09-19T04:59:51;96621.47;;;14.55;100.00
80726;BME280;70113;59.928;10.878;2023-09-19T05:02:16;96597.63;;;14.44;100.00
80726;BME280;70113;59.928;10.878;2023-09-19T05:04:43;96608.69;;;14.40;100.00
80726;BME280;70113;59.928;10.878;2023-09-19T05:07:08;96600.28;;;14.44;100.00
80726;BME280;70113;59.928;10.878;2023-09-19T05:09:36;96584.03;;;14.38;100.00
80726;BME280;70113;59.928;10.878;2023-09-19T05:12:03;96571.44;;;14.30;100.00
80726;BME280;70113;59.928;10.878;2023-09-19T05:14:28;96579.88;;;14.54;100.00
80726;BME280;70113;59.928;10.878;2023-09-19T05:16:55;96561.56;;;14.51;100.00
80726;BME280;70113;59.928;10.878;2023-09-19T05:19:21;96558.97;;;14.30;100.00
80726;BME280;70113;59.928;10.878;2023-09-19T05:21:46;96565.91;;;14.52;100.00
80726;BME280;70113;59.928;10.878;2023-09-19T05:24:12;96559.59;;;14.53;100.00
80726;BME280;70113;59.928;10.878;2023-09-19T05:26:40;96557.91;;;14.43;100.00
80726;BME280;70113;59.928;10.878;2023-09-19T05:29:05;96553.00;;;14.38;100.00
80726;BME280;70113;59.928;10.878;2023-09-19T05:31:33;96548.78;;;14.35;100.00
80726;BME280;70113;59.928;10.878;2023-09-19T05:34:02;96548.78;;;14.26;100.00
80726;BME280;70113;59.928;10.878;2023-09-19T05:36:27;96548.91;;;14.24;100.00
80726;BME280;70113;59.928;10.878;2023-09-19T05:38:55;96554.09;;;14.35;100.00
80726;BME280;70113;59.928;10.878;2023-09-19T05:41:20;96540.97;;;14.34;100.00
80726;BME280;70113;59.928;10.878;2023-09-19T05:43:49;96543.91;;;14.31;100.00
80726;BME280;70113;59.928;10.878;2023-09-19T05:46:15;96541.25;;;14.31;100.00
80726;BME280;70113;59.928;10.878;2023-09-19T05:48:42;96524.72;;;14.18;100.00
80726;BME280;70113;59.928;10.878;2023-09-19T05:51:09;96524.88;;;14.26;100.00
80726;BME280;70113;59.928;10.878;2023-09-19T05:53:35;96517.72;;;14.36;100.00
80726;BME280;70113;59.928;10.878;2023-09-19T05:56:01;96516.06;;;14.35;100.00
80726;BME280;70113;59.928;10.878;2023-09-19T05:58:26;96509.06;;;14.24;100.00
80726;BME280;70113;59.928;10.878;2023-09-19T06:00:52;96525.25;;;14.11;100.00
80726;BME280;70113;59.928;10.878;2023-09-19T06:03:18;96516.31;;;14.12;100.00
80726;BME280;70113;59.928;10.878;2023-09-19T06:05:44;96508.22;;;14.24;100.00
80726;BME280;70113;59.928;10.878;2023-09-19T06:08:11;96506.56;;;14.23;100.00
80726;BME280;70113;59.928;10.878;2023-09-19T06:10:37;96518.13;;;14.12;100.00
80726;BME280;70113;59.928;10.878;2023-09-19T06:15:28;96516.34;;;14.22;100.00
80726;BME280;70113;59.928;10.878;2023-09-19T06:17:55;96542.19;;;14.10;100.00
80726;BME280;70113;59.928;10.878;2023-09-19T06:20:21;96520.78;;;14.02;100.00
80726;BME280;70113;59.928;10.878;2023-09-19T06:22:48;96542.84;;;14.03;100.00
80726;BME280;70113;59.928;10.878;2023-09-19T06:25:15;96545.06;;;13.88;100.00
80726;BME280;70113;59.928;10.878;2023-09-19T06:27:45;96551.19;;;13.88;100.00
80726;BME280;70113;59.928;10.878;2023-09-19T06:30:11;96548.25;;;13.82;100.00
80726;BME280;70113;59.928;10.878;2023-09-19T06:32:38;96539.03;;;13.86;100.00
80726;BME280;70113;59.928;10.878;2023-09-19T06:35:04;96540.28;;;13.82;100.00
80726;BME280;70113;59.928;10.878;2023-09-19T06:37:32;96528.00;;;13.81;100.00
80726;BME280;70113;59.928;10.878;2023-09-19T06:39:59;96528.66;;;13.73;100.00
80726;BME280;70113;59.928;10.878;2023-09-19T06:42:25;96545.56;;;13.72;100.00
80726;BME280;70113;59.928;10.878;2023-09-19T06:44:53;96538.72;;;13.70;100.00
80726;BME280;70113;59.928;10.878;2023-09-19T06:47:19;96546.97;;;13.76;100.00
80726;BME280;70113;59.928;10.878;2023-09-19T06:49:45;96553.38;;;13.74;100.00
80726;BME280;70113;59.928;10.878;2023-09-19T06:52:11;96543.16;;;13.59;100.00
80726;BME280;70113;59.928;10.878;2023-09-19T06:54:37;96544.66;;;13.62;100.00
80726;BME280;70113;59.928;10.878;2023-09-19T06:57:03;96547.19;;;13.54;100.00
80726;BME280;70113;59.928;10.878;2023-09-19T06:59:29;96549.69;;;13.55;100.00
80726;BME280;70113;59.928;10.878;2023-09-19T07:01:54;96551.78;;;13.52;100.00
80726;BME280;70113;59.928;10.878;2023-09-19T07:04:20;96553.78;;;13.59;100.00
80726;BME280;70113;59.928;10.878;2023-09-19T07:06:49;96555.25;;;13.52;100.00
80726;BME280;70113;59.928;10.878;2023-09-19T07:09:16;96539.34;;;13.52;100.00
80726;BME280;70113;59.928;10.878;2023-09-19T07:11:42;96532.91;;;13.45;100.00
80726;BME280;70113;59.928;10.878;2023-09-19T07:14:08;96536.50;;;13.44;100.00
80726;BME280;70113;59.928;10.878;2023-09-19T07:16:40;96516.41;;;13.41;100.00
80726;BME280;70113;59.928;10.878;2023-09-19T07:19:08;96524.03;;;13.35;100.00
80726;BME280;70113;59.928;10.878;2023-09-19T07:21:33;96540.41;;;13.40;100.00
80726;BME280;70113;59.928;10.878;2023-09-19T07:24:00;96533.69;;;13.36;100.00
80726;BME280;70113;59.928;10.878;2023-09-19T07:26:27;96540.34;;;13.30;100.00
80726;BME280;70113;59.928;10.878;2023-09-19T07:28:53;96532.78;;;13.26;100.00
80726;BME280;70113;59.928;10.878;2023-09-19T07:31:20;96531.59;;;13.18;100.00
80726;BME280;70113;59.928;10.878;2023-09-19T07:33:45;96528.03;;;13.29;100.00
80726;BME280;70113;59.928;10.878;2023-09-19T07:36:11;96534.25;;;13.18;100.00
80726;BME280;70113;59.928;10.878;2023-09-19T07:38:39;96528.38;;;13.15;100.00
80726;BME280;70113;59.928;10.878;2023-09-19T07:41:05;96524.88;;;13.14;100.00
80726;BME280;70113;59.928;10.878;2023-09-19T07:43:31;96530.88;;;13.16;100.00
80726;BME280;70113;59.928;10.878;2023-09-19T07:45:57;96530.59;;;13.10;100.00
80726;BME280;70113;59.928;10.878;2023-09-19T07:48:26;96535.06;;;13.09;100.00
80726;BME280;70113;59.928;10.878;2023-09-19T07:50:51;96515.66;;;13.09;100.00
80726;BME280;70113;59.928;10.878;2023-09-19T07:53:17;96517.13;;;13.02;100.00
80726;BME280;70113;59.928;10.878;2023-09-19T07:55:43;96527.63;;;13.03;100.00
80726;BME280;70113;59.928;10.878;2023-09-19T07:58:09;96516.25;;;12.91;100.00
80726;BME280;70113;59.928;10.878;2023-09-19T08:00:34;96512.84;;;13.10;100.00
80726;BME280;70113;59.928;10.878;2023-09-19T08:03:00;96507.34;;;13.02;100.00
80726;BME280;70113;59.928;10.878;2023-09-19T08:05:26;96491.66;;;12.89;100.00
80726;BME280;70113;59.928;10.878;2023-09-19T08:07:52;96508.00;;;13.15;100.00
80726;BME280;70113;59.928;10.878;2023-09-19T08:10:19;96496.22;;;13.08;100.00
80726;BME280;70113;59.928;10.878;2023-09-19T08:12:47;96492.16;;;13.04;100.00
80726;BME280;70113;59.928;10.878;2023-09-19T08:15:19;96499.13;;;13.05;100.00
80726;BME280;70113;59.928;10.878;2023-09-19T08:20:10;96511.56;;;13.26;100.00
80726;BME280;70113;59.928;10.878;2023-09-19T08:22:59;96498.59;;;13.11;100.00
80726;BME280;70113;59.928;10.878;2023-09-19T08:25:25;96509.84;;;13.25;100.00
80726;BME280;70113;59.928;10.878;2023-09-19T08:27:55;96516.25;;;13.22;100.00
80726;BME280;70113;59.928;10.878;2023-09-19T08:30:27;96507.47;;;13.21;100.00
80726;BME280;70113;59.928;10.878;2023-09-19T08:33:01;96495.38;;;13.08;100.00
80726;BME280;70113;59.928;10.878;2023-09-19T08:35:30;96510.47;;;13.28;100.00
80726;BME280;70113;59.928;10.878;2023-09-19T08:37:56;96501.25;;;13.11;100.00
80726;BME280;70113;59.928;10.878;2023-09-19T08:40:22;96495.00;;;13.12;100.00
80726;BME280;70113;59.928;10.878;2023-09-19T08:42:52;96497.47;;;13.25;100.00
80726;BME280;70113;59.928;10.878;2023-09-19T08:45:23;96485.28;;;13.22;100.00
80726;BME280;70113;59.928;10.878;2023-09-19T08:48:16;96493.31;;;13.11;100.00
80726;BME280;70113;59.928;10.878;2023-09-19T08:50:47;96501.34;;;13.21;100.00
80726;BME280;70113;59.928;10.878;2023-09-19T08:53:19;96491.34;;;13.34;100.00
80726;BME280;70113;59.928;10.878;2023-09-19T08:55:50;96493.44;;;13.31;100.00
80726;BME280;70113;59.928;10.878;2023-09-19T08:58:18;96490.00;;;13.40;100.00
80726;BME280;70113;59.928;10.878;2023-09-19T09:00:48;96489.97;;;13.30;100.00
80726;BME280;70113;59.928;10.878;2023-09-19T09:03:16;96468.22;;;13.15;100.00
80726;BME280;70113;59.928;10.878;2023-09-19T09:05:45;96479.47;;;13.29;100.00
80726;BME280;70113;59.928;10.878;2023-09-19T09:08:12;96480.75;;;13.34;100.00
80726;BME280;70113;59.928;10.878;2023-09-19T09:10:38;96476.31;;;13.23;100.00
80726;BME280;70113;59.928;10.878;2023-09-19T09:13:06;96492.91;;;13.37;100.00
80726;BME280;70113;59.928;10.878;2023-09-19T09:15:35;96463.22;;;13.22;100.00
80726;BME280;70113;59.928;10.878;2023-09-19T09:18:02;96493.50;;;13.50;100.00
80726;BME280;70113;59.928;10.878;2023-09-19T09:20:28;96488.06;;;13.52;100.00
80726;BME280;70113;59.928;10.878;2023-09-19T09:22:55;96490.19;;;13.58;100.00
80726;BME280;70113;59.928;10.878;2023-09-19T09:25:47;96494.09;;;13.54;100.00
80726;BME280;70113;59.928;10.878;2023-09-19T09:28:19;96481.03;;;13.41;100.00
80726;BME280;70113;59.928;10.878;2023-09-19T09:30:45;96486.00;;;13.55;100.00
80726;BME280;70113;59.928;10.878;2023-09-19T09:33:13;96498.53;;;13.53;100.00
80726;BME280;70113;59.928;10.878;2023-09-19T09:35:56;96491.03;;;13.58;100.00
80726;BME280;70113;59.928;10.878;2023-09-19T09:38:24;96490.22;;;13.67;100.00
80726;BME280;70113;59.928;10.878;2023-09-19T09:40:56;96490.09;;;13.69;100.00
80726;BME280;70113;59.928;10.878;2023-09-19T09:43:30;96514.53;;;13.63;100.00
80726;BME280;70113;59.928;10.878;2023-09-19T09:48:36;96525.34;;;13.50;100.00
80726;BME280;70113;59.928;10.878;2023-09-19T09:51:04;96525.09;;;13.53;100.00
80726;BME280;70113;59.928;10.878;2023-09-19T09:53:33;96518.25;;;13.51;100.00
80726;BME280;70113;59.928;10.878;2023-09-19T09:58:26;96526.63;;;13.56;100.00
80726;BME280;70113;59.928;10.878;2023-09-19T10:00:55;96533.84;;;13.44;100.00
80726;BME280;70113;59.928;10.878;2023-09-19T10:03:38;96528.66;;;13.33;100.00
80726;BME280;70113;59.928;10.878;2023-09-19T10:06:11;96525.31;;;13.40;100.00
80726;BME280;70113;59.928;10.878;2023-09-19T10:11:44;96538.00;;;13.37;100.00
80726;BME280;70113;59.928;10.878;2023-09-19T10:14:12;96531.91;;;13.46;100.00
80726;BME280;70113;59.928;10.878;2023-09-19T10:16:45;96522.22;;;13.35;100.00
80726;BME280;70113;59.928;10.878;2023-09-19T10:19:42;96522.13;;;13.47;100.00
80726;BME280;70113;59.928;10.878;2023-09-19T10:22:04;96522.31;;;13.55;100.00
80726;BME280;70113;59.928;10.878;2023-09-19T10:24:33;96532.13;;;13.64;100.00
80726;BME280;70113;59.928;10.878;2023-09-19T10:26:59;96513.53;;;13.64;100.00
80726;BME280;70113;59.928;10.878;2023-09-19T10:29:27;96519.13;;;13.71;100.00
80726;BME280;70113;59.928;10.878;2023-09-19T10:31:58;96528.56;;;13.84;100.00
80726;BME280;70113;59.928;10.878;2023-09-19T10:34:25;96540.81;;;13.76;100.00
80726;BME280;70113;59.928;10.878;2023-09-19T10:36:51;96533.09;;;13.63;100.00
80726;BME280;70113;59.928;10.878;2023-09-19T10:39:18;96529.34;;;13.65;100.00
80726;BME280;70113;59.928;10.878;2023-09-19T10:41:50;96540.00;;;13.85;100.00
80726;BME280;70113;59.928;10.878;2023-09-19T10:44:23;96520.56;;;13.75;100.00
80726;BME280;70113;59.928;10.878;2023-09-19T10:46:51;96534.97;;;13.82;100.00
80726;BME280;70113;59.928;10.878;2023-09-19T10:49:19;96531.59;;;13.80;100.00
80726;BME280;70113;59.928;10.878;2023-09-19T10:51:45;96553.00;;;13.78;99.58
80726;BME280;70113;59.928;10.878;2023-09-19T10:54:17;96545.28;;;13.65;97.57
80726;BME280;70113;59.928;10.878;2023-09-19T10:56:52;96548.59;;;13.58;94.99
80726;BME280;70113;59.928;10.878;2023-09-19T10:59:19;96552.78;;;13.60;95.04
80726;BME280;70113;59.928;10.878;2023-09-19T11:01:47;96558.00;;;13.72;96.55
80726;BME280;70113;59.928;10.878;2023-09-19T11:07:13;96560.13;;;13.78;97.69
80726;BME280;70113;59.928;10.878;2023-09-19T11:09:55;96560.94;;;13.68;94.94
80726;BME280;70113;59.928;10.878;2023-09-19T11:15:03;96567.63;;;13.73;94.99
80726;BME280;70113;59.928;10.878;2023-09-19T11:17:43;96561.78;;;13.79;95.66
80726;BME280;70113;59.928;10.878;2023-09-19T11:30:35;96591.88;;;13.89;88.90
80726;BME280;70113;59.928;10.878;2023-09-19T11:36:06;96593.69;;;13.88;83.67
80726;BME280;70113;59.928;10.878;2023-09-19T11:46:30;96604.38;;;13.98;81.71
80726;BME280;70113;59.928;10.878;2023-09-19T11:49:05;96595.59;;;14.07;83.21
80726;BME280;70113;59.928;10.878;2023-09-19T11:51:42;96594.75;;;14.07;82.58
80726;BME280;70113;59.928;10.878;2023-09-19T11:54:12;96595.41;;;13.99;79.58
80726;BME280;70113;59.928;10.878;2023-09-19T11:56:54;96582.22;;;13.88;79.28
80726;BME280;70113;59.928;10.878;2023-09-19T11:59:38;96603.19;;;13.91;78.92
80726;BME280;70113;59.928;10.878;2023-09-19T12:02:05;96599.59;;;13.92;79.25
80726;BME280;70113;59.928;10.878;2023-09-19T12:04:42;96604.91;;;13.92;76.79
80726;BME280;70113;59.928;10.878;2023-09-19T12:07:14;96592.56;;;13.91;78.14
80726;BME280;70113;59.928;10.878;2023-09-19T12:09:45;96601.00;;;13.96;76.02
80726;BME280;70113;59.928;10.878;2023-09-19T12:12:26;96604.91;;;13.92;74.03
80726;BME280;70113;59.928;10.878;2023-09-19T12:15:01;96583.66;;;13.92;77.02
80726;BME280;70113;59.928;10.878;2023-09-19T12:17:38;96609.56;;;14.09;75.01
80726;BME280;70113;59.928;10.878;2023-09-19T12:20:06;96593.63;;;14.09;74.81
80726;BME280;70113;59.928;10.878;2023-09-19T12:22:42;96612.09;;;14.21;73.88
80726;BME280;70113;59.928;10.878;2023-09-19T12:25:09;96619.50;;;14.17;72.61
80726;BME280;70113;59.928;10.878;2023-09-19T12:30:10;96610.69;;;14.07;71.62
80726;BME280;70113;59.928;10.878;2023-09-19T12:32:40;96616.16;;;14.15;71.49
80726;BME280;70113;59.928;10.878;2023-09-19T12:35:06;96615.47;;;14.13;72.30
80726;BME280;70113;59.928;10.878;2023-09-19T12:37:44;96606.34;;;14.16;72.95
80726;BME280;70113;59.928;10.878;2023-09-19T12:40:20;96612.78;;;14.53;70.61
80726;BME280;70113;59.928;10.878;2023-09-19T12:42:48;96616.31;;;14.73;68.74
80726;BME280;70113;59.928;10.878;2023-09-19T12:45:15;96614.19;;;14.77;67.57
80726;BME280;70113;59.928;10.878;2023-09-19T12:48:17;96619.38;;;14.88;66.54
80726;BME280;70113;59.928;10.878;2023-09-19T12:51:05;96619.22;;;14.90;67.11
80726;BME280;70113;59.928;10.878;2023-09-19T12:53:41;96621.78;;;14.81;67.57
80726;BME280;70113;59.928;10.878;2023-09-19T12:56:18;96624.56;;;14.70;68.19
80726;BME280;70113;59.928;10.878;2023-09-19T12:58:55;96620.75;;;14.53;68.21
80726;BME280;70113;59.928;10.878;2023-09-19T13:01:21;96627.03;;;14.52;69.35
80726;BME280;70113;59.928;10.878;2023-09-19T13:04:20;96638.31;;;14.35;68.15
80726;BME280;70113;59.928;10.878;2023-09-19T13:06:47;96631.53;;;14.21;67.73
80726;BME280;70113;59.928;10.878;2023-09-19T13:09:15;96625.13;;;14.24;69.46
80726;BME280;70113;59.928;10.878;2023-09-19T13:11:43;96632.53;;;14.20;69.56
80726;BME280;70113;59.928;10.878;2023-09-19T13:17:04;96624.25;;;14.13;70.80
80726;BME280;70113;59.928;10.878;2023-09-19T13:19:51;96633.72;;;14.06;69.74
80726;BME280;70113;59.928;10.878;2023-09-19T13:22:44;96633.59;;;14.08;68.56
80726;BME280;70113;59.928;10.878;2023-09-19T13:25:21;96635.09;;;14.01;69.18
80726;BME280;70113;59.928;10.878;2023-09-19T13:27:50;96642.50;;;13.97;70.36
80726;BME280;70113;59.928;10.878;2023-09-19T13:30:23;96626.91;;;13.83;72.84
80726;BME280;70113;59.928;10.878;2023-09-19T13:32:51;96633.47;;;13.79;75.36
80726;BME280;70113;59.928;10.878;2023-09-19T13:35:18;96625.47;;;13.69;77.32
80726;BME280;70113;59.928;10.878;2023-09-19T13:37:46;96638.34;;;13.74;77.83
80726;BME280;70113;59.928;10.878;2023-09-19T13:40:15;96635.78;;;13.62;79.33
80726;BME280;70113;59.928;10.878;2023-09-19T13:42:41;96644.84;;;13.60;79.77
80726;BME280;70113;59.928;10.878;2023-09-19T13:45:08;96636.44;;;13.55;80.22
80726;BME280;70113;59.928;10.878;2023-09-19T13:47:37;96641.34;;;13.38;80.92
80726;BME280;70113;59.928;10.878;2023-09-19T13:50:04;96629.56;;;13.52;81.71
80726;BME280;70113;59.928;10.878;2023-09-19T13:52:31;96650.38;;;13.78;81.52
80726;BME280;70113;59.928;10.878;2023-09-19T13:54:57;96648.34;;;13.60;78.92
80726;BME280;70113;59.928;10.878;2023-09-19T13:57:24;96655.19;;;13.63;79.78
80726;BME280;70113;59.928;10.878;2023-09-19T13:59:54;96647.41;;;13.50;78.97
80726;BME280;70113;59.928;10.878;2023-09-19T14:02:23;96640.06;;;13.33;78.78
80726;BME280;70113;59.928;10.878;2023-09-19T14:04:49;96647.41;;;13.50;79.70
80726;BME280;70113;59.928;10.878;2023-09-19T14:07:15;96657.59;;;13.45;78.65
80726;BME280;70113;59.928;10.878;2023-09-19T14:09:43;96656.31;;;13.39;77.24
80726;BME280;70113;59.928;10.878;2023-09-19T14:12:09;96631.31;;;13.21;77.30